createdAt,value
2022-09-06T00:03:59.947Z,18.82
2022-09-06T00:08:12.498Z,18.82
2022-09-06T00:12:20.973Z,18.79
2022-09-06T00:16:29.688Z,18.72
2022-09-06T00:20:32.853Z,18.65
2022-09-06T00:24:34.337Z,18.66
2022-09-06T00:28:42.496Z,18.66
2022-09-06T00:32:43.938Z,18.64
2022-09-06T00:36:51.587Z,18.67
2022-09-06T00:40:59.489Z,18.64
2022-09-06T00:45:01.161Z,18.63
2022-09-06T00:49:09.470Z,18.63
2022-09-06T00:53:17.543Z,18.64
2022-09-06T00:57:19.169Z,18.64
2022-09-06T01:01:20.669Z,18.61
2022-09-06T01:05:30.069Z,18.58
2022-09-06T01:09:34.553Z,18.56
2022-09-06T01:13:53.909Z,18.50
2022-09-06T01:18:14.921Z,18.51
2022-09-06T01:22:40.698Z,18.48
2022-09-06T01:27:39.584Z,18.31
2022-09-06T01:31:54.674Z,18.16
2022-09-06T01:36:04.101Z,18.00
2022-09-06T01:40:06.243Z,17.97
2022-09-06T01:44:07.731Z,17.91
2022-09-06T01:48:17.003Z,17.81
2022-09-06T01:52:29.537Z,17.72
2022-09-06T01:57:03.194Z,17.51
2022-09-06T02:01:16.565Z,17.52
2022-09-06T02:05:33.729Z,17.43
2022-09-06T02:09:43.583Z,17.33
2022-09-06T02:13:53.985Z,17.26
2022-09-06T02:18:04.576Z,17.14
2022-09-06T02:22:09.673Z,17.10
2022-09-06T02:26:17.737Z,17.06
2022-09-06T02:30:19.329Z,16.93
2022-09-06T02:34:21.805Z,16.98
2022-09-06T02:38:25.080Z,17.01
2022-09-06T02:42:27.148Z,17.00
2022-09-06T02:46:35.598Z,16.99
2022-09-06T02:50:43.557Z,16.88
2022-09-06T02:54:45.594Z,16.88
2022-09-06T02:58:53.605Z,16.81
2022-09-06T03:02:55.820Z,16.77
2022-09-06T03:06:57.517Z,16.74
2022-09-06T03:11:06.653Z,16.62
2022-09-06T03:15:08.586Z,16.48
2022-09-06T03:19:10.115Z,16.46
2022-09-06T03:23:11.494Z,16.49
2022-09-06T03:27:19.785Z,16.50
2022-09-06T03:31:21.464Z,16.41
2022-09-06T03:35:29.622Z,16.45
2022-09-06T03:39:31.049Z,16.46
2022-09-06T03:43:32.507Z,16.48
2022-09-06T03:47:33.889Z,16.49
2022-09-06T03:51:35.324Z,16.47
2022-09-06T03:55:36.834Z,16.38
2022-09-06T03:59:38.510Z,16.22
2022-09-06T04:03:40.301Z,16.15
2022-09-06T04:07:49.625Z,16.10
2022-09-06T04:11:51.269Z,16.03
2022-09-06T04:15:59.675Z,15.97
2022-09-06T04:20:01.249Z,15.91
2022-09-06T04:24:02.858Z,15.80
2022-09-06T04:28:04.776Z,15.78
2022-09-06T04:32:06.361Z,15.82
2022-09-06T04:36:10.629Z,15.78
2022-09-06T04:40:12.077Z,15.76
2022-09-06T04:44:13.495Z,15.75
2022-09-06T04:48:15.694Z,15.74
2022-09-06T04:52:17.561Z,15.67
2022-09-06T04:56:24.521Z,15.63
2022-09-06T05:00:33.633Z,15.62
2022-09-06T05:04:35.121Z,15.64
2022-09-06T05:08:45.653Z,15.71
2022-09-06T05:12:51.821Z,15.78
2022-09-06T05:17:00.800Z,15.85
2022-09-06T05:21:02.345Z,15.86
2022-09-06T05:25:03.913Z,15.87
2022-09-06T05:29:05.745Z,15.87
2022-09-06T05:33:11.954Z,15.98
2022-09-06T05:37:13.460Z,16.01
2022-09-06T05:41:14.861Z,16.05
2022-09-06T05:45:17.206Z,16.11
2022-09-06T05:49:18.654Z,16.17
2022-09-06T05:53:20.146Z,16.29
2022-09-06T05:57:21.814Z,16.37
2022-09-06T06:01:28.437Z,16.37
2022-09-06T06:05:29.997Z,16.39
2022-09-06T06:09:31.913Z,16.45
2022-09-06T06:13:43.718Z,16.53
2022-09-06T06:17:45.233Z,16.59
2022-09-06T06:21:46.741Z,16.56
2022-09-06T06:25:48.133Z,16.52
2022-09-06T06:29:50.466Z,16.51
2022-09-06T06:33:52.377Z,16.51
2022-09-06T06:37:53.879Z,16.60
2022-09-06T06:41:55.566Z,16.66
2022-09-06T06:45:57.094Z,16.87
2022-09-06T06:49:58.674Z,17.22
2022-09-06T06:54:00.206Z,17.40
2022-09-06T06:58:08.737Z,17.72
2022-09-06T07:02:10.288Z,18.26
2022-09-06T07:06:12.599Z,18.74
2022-09-06T07:14:36.965Z,19.65
2022-09-06T07:18:42.376Z,20.09
2022-09-06T07:22:43.925Z,20.51
2022-09-06T07:35:34.863Z,21.36
2022-09-06T07:39:37.107Z,21.68
2022-09-06T07:43:44.774Z,21.95
2022-09-06T07:47:57.319Z,22.14
2022-09-06T07:51:59.221Z,22.30
2022-09-06T07:56:14.474Z,22.39
2022-09-06T08:04:53.994Z,22.60
2022-09-06T08:09:13.231Z,22.84
2022-09-06T08:13:32.942Z,23.12
2022-09-06T08:26:51.771Z,24.03
2022-09-06T08:31:21.263Z,23.99
2022-09-06T08:36:01.577Z,24.13
2022-09-06T08:40:07.657Z,24.45
2022-09-06T08:44:57.038Z,24.69
2022-09-06T08:49:01.770Z,25.02
2022-09-06T08:53:17.649Z,25.32
2022-09-06T08:57:41.327Z,25.50
2022-09-06T09:02:08.047Z,25.72
2022-09-06T09:06:10.483Z,25.88
2022-09-06T09:10:21.582Z,25.89
2022-09-06T09:14:30.616Z,26.13
2022-09-06T09:18:38.719Z,26.41
2022-09-06T09:22:41.473Z,26.56
2022-09-06T09:26:59.830Z,26.67
2022-09-06T09:31:01.710Z,26.69
2022-09-06T09:35:39.843Z,26.78
2022-09-06T09:39:47.954Z,26.98
2022-09-06T09:44:05.344Z,27.10
2022-09-06T09:48:17.986Z,27.13
2022-09-06T09:52:33.015Z,27.10
2022-09-06T09:56:38.556Z,27.21
2022-09-06T10:00:43.006Z,27.27
2022-09-06T10:04:49.638Z,27.26
2022-09-06T10:08:52.293Z,27.13
2022-09-06T10:13:13.692Z,27.44
2022-09-06T10:17:20.592Z,27.66
2022-09-06T10:21:23.993Z,27.84
2022-09-06T10:25:54.719Z,28.17
2022-09-06T10:30:12.945Z,28.09
2022-09-06T10:34:34.681Z,28.26
2022-09-06T10:38:50.942Z,28.25
2022-09-06T10:42:54.463Z,28.52
2022-09-06T10:47:16.046Z,28.70
2022-09-06T10:51:31.314Z,28.87
2022-09-06T10:55:32.986Z,29.05
2022-09-06T10:59:41.964Z,29.12
2022-09-06T11:04:04.348Z,29.30
2022-09-06T11:12:58.804Z,29.55
2022-09-06T11:17:07.230Z,29.63
2022-09-06T11:21:19.273Z,29.72
2022-09-06T11:25:38.913Z,29.84
2022-09-06T11:29:44.511Z,29.97
2022-09-06T11:33:46.633Z,30.12
2022-09-06T11:37:57.112Z,30.21
2022-09-06T11:42:05.858Z,30.35
2022-09-06T11:46:16.372Z,30.43
2022-09-06T11:50:21.308Z,30.45
2022-09-06T11:54:37.021Z,29.96
2022-09-06T11:58:47.932Z,30.19
2022-09-06T12:02:51.036Z,30.45
2022-09-06T12:07:13.076Z,30.72
2022-09-06T12:11:30.200Z,30.91
2022-09-06T12:15:51.747Z,30.83
2022-09-06T12:19:54.983Z,30.36
2022-09-06T12:23:56.462Z,30.19
2022-09-06T12:28:01.080Z,30.09
2022-09-06T12:32:05.721Z,30.21
2022-09-06T12:36:24.246Z,30.67
2022-09-06T12:40:35.878Z,30.76
2022-09-06T12:44:42.830Z,30.44
2022-09-06T12:49:03.551Z,30.60
2022-09-06T12:53:23.601Z,30.74
2022-09-06T12:57:26.406Z,30.82
2022-09-06T13:01:35.801Z,30.82
2022-09-06T13:05:42.218Z,30.95
2022-09-06T13:09:53.993Z,31.13
2022-09-06T13:13:55.856Z,31.10
2022-09-06T13:18:26.036Z,30.82
2022-09-06T13:23:08.286Z,30.71
2022-09-06T13:27:28.126Z,30.88
2022-09-06T13:31:30.002Z,30.85
2022-09-06T13:35:36.081Z,30.94
2022-09-06T13:39:40.419Z,30.91
2022-09-06T13:43:44.945Z,30.74
2022-09-06T13:47:46.363Z,30.61
2022-09-06T13:51:48.107Z,30.45
2022-09-06T13:55:50.043Z,30.51
2022-09-06T13:59:51.497Z,30.74
2022-09-06T14:03:53.301Z,31.01
2022-09-06T14:07:54.792Z,31.05
2022-09-06T14:11:56.745Z,30.94
2022-09-06T14:15:58.621Z,30.80
2022-09-06T14:20:00.238Z,30.51
2022-09-06T14:24:04.549Z,30.66
2022-09-06T14:28:06.296Z,30.96
2022-09-06T14:32:07.737Z,30.80
2022-09-06T14:36:14.784Z,30.95
2022-09-06T14:40:22.985Z,31.12
2022-09-06T14:44:24.634Z,30.80
2022-09-06T14:48:30.065Z,30.31
2022-09-06T14:52:31.756Z,30.23
2022-09-06T14:56:33.516Z,30.26
2022-09-06T15:00:35.089Z,30.27
2022-09-06T15:04:36.598Z,30.52
2022-09-06T15:08:38.641Z,30.68
2022-09-06T15:12:40.213Z,30.84
2022-09-06T15:16:53.467Z,30.85
2022-09-06T15:20:57.189Z,30.90
2022-09-06T15:24:58.666Z,30.88
2022-09-06T15:29:01.929Z,31.04
2022-09-06T15:33:03.606Z,31.18
2022-09-06T15:37:05.104Z,31.17
2022-09-06T15:41:11.824Z,31.20
2022-09-06T15:45:13.322Z,31.23
2022-09-06T15:49:28.394Z,31.34
2022-09-06T15:53:30.225Z,31.44
2022-09-06T15:57:31.717Z,31.40
2022-09-06T16:01:34.108Z,31.38
2022-09-06T16:09:57.942Z,31.38
2022-09-06T16:13:59.688Z,31.44
2022-09-06T16:18:05.179Z,31.45
2022-09-06T16:22:06.647Z,31.40
2022-09-06T16:26:09.385Z,31.52
2022-09-06T16:30:11.067Z,32.47
2022-09-06T16:34:20.041Z,31.72
2022-09-06T16:38:21.481Z,30.77
2022-09-06T16:42:23.097Z,30.11
2022-09-06T16:46:26.316Z,29.51
2022-09-06T16:50:27.866Z,29.12
2022-09-06T16:54:30.438Z,28.81
2022-09-06T16:58:32.014Z,28.54
2022-09-06T17:02:34.022Z,28.31
2022-09-06T17:06:49.053Z,28.01
2022-09-06T17:10:50.661Z,27.77
2022-09-06T17:14:52.174Z,27.49
2022-09-06T17:18:53.823Z,27.16
2022-09-06T17:22:55.339Z,26.80
2022-09-06T17:26:56.761Z,26.47
2022-09-06T17:31:08.223Z,26.14
2022-09-06T17:35:09.974Z,25.81
2022-09-06T17:39:14.585Z,25.55
2022-09-06T17:43:16.102Z,25.32
2022-09-06T17:47:17.897Z,25.11
2022-09-06T17:51:19.806Z,24.88
2022-09-06T17:55:21.290Z,24.65
2022-09-06T17:59:34.225Z,24.30
2022-09-06T18:03:39.498Z,24.14
2022-09-06T18:07:47.106Z,23.98
2022-09-06T18:11:48.734Z,23.78
2022-09-06T18:15:57.364Z,23.63
2022-09-06T18:20:06.250Z,23.48
2022-09-06T18:24:09.437Z,23.36
2022-09-06T18:28:17.141Z,23.18
2022-09-06T18:32:18.605Z,23.03
2022-09-06T18:36:20.118Z,22.85
2022-09-06T18:40:21.546Z,22.71
2022-09-06T18:44:23.321Z,22.58
2022-09-06T18:48:24.922Z,22.47
2022-09-06T18:52:26.885Z,22.35
2022-09-06T18:56:28.292Z,22.16
2022-09-06T19:00:37.116Z,22.09
2022-09-06T19:04:39.731Z,21.96
2022-09-06T19:08:42.227Z,21.84
2022-09-06T19:12:53.262Z,21.70
2022-09-06T19:16:54.946Z,21.58
2022-09-06T19:21:18.408Z,21.49
2022-09-06T19:25:20.005Z,21.44
2022-09-06T19:29:21.652Z,21.34
2022-09-06T19:33:24.121Z,21.29
2022-09-06T19:37:32.117Z,21.20
2022-09-06T19:41:44.159Z,21.13
2022-09-06T19:45:45.598Z,21.02
2022-09-06T19:49:47.133Z,20.96
2022-09-06T19:53:54.174Z,20.93
2022-09-06T19:57:55.826Z,20.88
2022-09-06T20:01:57.530Z,20.88
2022-09-06T20:06:07.190Z,20.87
2022-09-06T20:10:09.184Z,20.76
2022-09-06T20:14:18.872Z,20.66
2022-09-06T20:18:20.662Z,20.59
2022-09-06T20:22:22.946Z,20.52
2022-09-06T20:26:26.309Z,20.52
2022-09-06T20:30:36.410Z,20.47
2022-09-06T20:34:37.893Z,20.47
2022-09-06T20:38:41.549Z,20.40
2022-09-06T20:42:45.918Z,20.36
2022-09-06T20:46:47.487Z,20.30
2022-09-06T20:51:00.137Z,20.31
2022-09-06T20:55:01.688Z,20.21
2022-09-06T20:59:06.249Z,20.04
2022-09-06T21:03:07.646Z,20.06
2022-09-06T21:07:09.104Z,20.18
2022-09-06T21:11:10.812Z,20.22
2022-09-06T21:15:12.385Z,20.31
2022-09-06T21:19:14.269Z,20.39
2022-09-06T21:23:15.689Z,20.51
2022-09-06T21:27:23.210Z,20.58
2022-09-06T21:31:29.764Z,20.59
2022-09-06T21:35:34.405Z,20.61
2022-09-06T21:39:36.769Z,20.56
2022-09-06T21:43:38.325Z,20.60
2022-09-06T21:47:46.249Z,20.59
2022-09-06T21:51:47.693Z,20.61
2022-09-06T21:55:49.533Z,20.65
2022-09-06T21:59:50.983Z,20.64
2022-09-06T22:03:52.588Z,20.64
2022-09-06T22:07:54.367Z,20.69
2022-09-06T22:11:55.832Z,20.73
2022-09-06T22:15:57.464Z,20.71
2022-09-06T22:20:05.475Z,20.45
2022-09-06T22:24:10.702Z,20.42
2022-09-06T22:28:12.165Z,20.45
2022-09-06T22:32:13.698Z,20.46
2022-09-06T22:36:15.144Z,20.45
2022-09-06T22:40:16.609Z,20.32
2022-09-06T22:44:18.594Z,20.29
2022-09-06T22:48:26.262Z,20.26
2022-09-06T22:52:27.942Z,20.28
2022-09-06T22:56:29.513Z,20.28
2022-09-06T23:00:35.643Z,20.27
2022-09-06T23:04:37.195Z,20.21
2022-09-06T23:08:40.361Z,20.09
2022-09-06T23:12:42.420Z,20.04
2022-09-06T23:16:43.870Z,19.99
2022-09-06T23:20:45.288Z,19.90
2022-09-06T23:24:53.534Z,19.91
2022-09-06T23:29:05.249Z,19.97
2022-09-06T23:33:06.710Z,19.97
2022-09-06T23:37:08.295Z,19.87
2022-09-06T23:41:17.261Z,19.90
2022-09-06T23:45:18.993Z,19.91
2022-09-06T23:49:20.556Z,19.86
2022-09-06T23:53:22.458Z,19.88
2022-09-06T23:57:23.962Z,19.80
